sensor_id;sensor_type;location;lat;lon;timestamp;pressure;altitude;pressure_sealevel;temperature
9985;BMP180;16737;50.932;6.780;2023-05-10T00:01:29;99524.00;;;17.80
9985;BMP180;16737;50.932;6.780;2023-05-10T00:03:56;99527.00;;;17.80
9985;BMP180;16737;50.932;6.780;2023-05-10T00:06:25;99524.00;;;17.80
9985;BMP180;16737;50.932;6.780;2023-05-10T00:08:52;99520.00;;;17.80
9985;BMP180;16737;50.932;6.780;2023-05-10T00:11:20;99522.00;;;17.90
9985;BMP180;16737;50.932;6.780;2023-05-10T00:13:50;99521.00;;;17.90
9985;BMP180;16737;50.932;6.780;2023-05-10T00:16:17;99522.00;;;17.90
9985;BMP180;16737;50.932;6.780;2023-05-10T00:18:45;99518.00;;;17.90
9985;BMP180;16737;50.932;6.780;2023-05-10T00:21:12;99519.00;;;17.90
9985;BMP180;16737;50.932;6.780;2023-05-10T00:23:41;99519.00;;;17.90
9985;BMP180;16737;50.932;6.780;2023-05-10T00:26:08;99526.00;;;17.90
9985;BMP180;16737;50.932;6.780;2023-05-10T00:28:35;99524.00;;;17.90
9985;BMP180;16737;50.932;6.780;2023-05-10T00:31:02;99521.00;;;17.90
9985;BMP180;16737;50.932;6.780;2023-05-10T00:33:30;99517.00;;;17.90
9985;BMP180;16737;50.932;6.780;2023-05-10T00:35:57;99523.00;;;17.90
9985;BMP180;16737;50.932;6.780;2023-05-10T00:38:24;99525.00;;;17.90
9985;BMP180;16737;50.932;6.780;2023-05-10T00:40:53;99524.00;;;17.90
9985;BMP180;16737;50.932;6.780;2023-05-10T00:43:20;99520.00;;;18.00
9985;BMP180;16737;50.932;6.780;2023-05-10T00:45:48;99526.00;;;18.00
9985;BMP180;16737;50.932;6.780;2023-05-10T00:48:15;99501.00;;;17.90
9985;BMP180;16737;50.932;6.780;2023-05-10T00:50:43;99513.00;;;17.90
9985;BMP180;16737;50.932;6.780;2023-05-10T00:53:10;99523.00;;;17.90
9985;BMP180;16737;50.932;6.780;2023-05-10T00:55:38;99520.00;;;17.90
9985;BMP180;16737;50.932;6.780;2023-05-10T00:58:07;99518.00;;;17.90
9985;BMP180;16737;50.932;6.780;2023-05-10T01:00:34;99521.00;;;17.90
9985;BMP180;16737;50.932;6.780;2023-05-10T01:03:04;99522.00;;;17.90
9985;BMP180;16737;50.932;6.780;2023-05-10T01:05:31;99524.00;;;17.90
9985;BMP180;16737;50.932;6.780;2023-05-10T01:07:59;99526.00;;;17.90
9985;BMP180;16737;50.932;6.780;2023-05-10T01:10:26;99525.00;;;17.90
9985;BMP180;16737;50.932;6.780;2023-05-10T01:12:53;99523.00;;;17.90
9985;BMP180;16737;50.932;6.780;2023-05-10T01:15:23;99521.00;;;17.90
9985;BMP180;16737;50.932;6.780;2023-05-10T01:17:51;99522.00;;;17.90
9985;BMP180;16737;50.932;6.780;2023-05-10T01:20:18;99524.00;;;17.90
9985;BMP180;16737;50.932;6.780;2023-05-10T01:23:10;99529.00;;;17.90
9985;BMP180;16737;50.932;6.780;2023-05-10T01:26:13;99523.00;;;17.80
9985;BMP180;16737;50.932;6.780;2023-05-10T01:32:20;99527.00;;;17.80
9985;BMP180;16737;50.932;6.780;2023-05-10T01:34:54;99527.00;;;17.80
9985;BMP180;16737;50.932;6.780;2023-05-10T01:37:29;99536.00;;;17.90
9985;BMP180;16737;50.932;6.780;2023-05-10T01:40:03;99523.00;;;17.90
9985;BMP180;16737;50.932;6.780;2023-05-10T01:42:39;99528.00;;;17.90
9985;BMP180;16737;50.932;6.780;2023-05-10T01:45:14;99529.00;;;17.90
9985;BMP180;16737;50.932;6.780;2023-05-10T01:47:46;99526.00;;;17.90
9985;BMP180;16737;50.932;6.780;2023-05-10T01:50:17;99533.00;;;17.90
9985;BMP180;16737;50.932;6.780;2023-05-10T01:52:54;99529.00;;;17.90
9985;BMP180;16737;50.932;6.780;2023-05-10T01:55:25;99543.00;;;17.90
9985;BMP180;16737;50.932;6.780;2023-05-10T01:58:00;99534.00;;;17.90
9985;BMP180;16737;50.932;6.780;2023-05-10T02:00:29;99526.00;;;17.90
9985;BMP180;16737;50.932;6.780;2023-05-10T02:03:00;99530.00;;;17.90
9985;BMP180;16737;50.932;6.780;2023-05-10T02:05:29;99529.00;;;17.90
9985;BMP180;16737;50.932;6.780;2023-05-10T02:07:58;99527.00;;;18.00
9985;BMP180;16737;50.932;6.780;2023-05-10T02:10:27;99532.00;;;18.00
9985;BMP180;16737;50.932;6.780;2023-05-10T02:12:55;99529.00;;;18.00
9985;BMP180;16737;50.932;6.780;2023-05-10T02:15:27;99529.00;;;18.00
9985;BMP180;16737;50.932;6.780;2023-05-10T02:17:55;99538.00;;;18.00
9985;BMP180;16737;50.932;6.780;2023-05-10T02:20:26;99533.00;;;18.00
9985;BMP180;16737;50.932;6.780;2023-05-10T02:22:55;99544.00;;;18.10
9985;BMP180;16737;50.932;6.780;2023-05-10T02:25:24;99549.00;;;18.10
9985;BMP180;16737;50.932;6.780;2023-05-10T02:27:55;99547.00;;;18.10
9985;BMP180;16737;50.932;6.780;2023-05-10T02:30:23;99551.00;;;18.10
9985;BMP180;16737;50.932;6.780;2023-05-10T02:32:51;99552.00;;;18.10
9985;BMP180;16737;50.932;6.780;2023-05-10T02:35:19;99556.00;;;18.10
9985;BMP180;16737;50.932;6.780;2023-05-10T02:37:49;99555.00;;;18.00
9985;BMP180;16737;50.932;6.780;2023-05-10T02:40:17;99554.00;;;18.00
9985;BMP180;16737;50.932;6.780;2023-05-10T02:42:45;99550.00;;;18.00
9985;BMP180;16737;50.932;6.780;2023-05-10T02:45:17;99548.00;;;18.00
9985;BMP180;16737;50.932;6.780;2023-05-10T02:47:45;99562.00;;;18.00
9985;BMP180;16737;50.932;6.780;2023-05-10T02:50:12;99554.00;;;18.00
9985;BMP180;16737;50.932;6.780;2023-05-10T02:52:42;99561.00;;;18.00
9985;BMP180;16737;50.932;6.780;2023-05-10T02:55:15;99565.00;;;18.00
9985;BMP180;16737;50.932;6.780;2023-05-10T02:57:50;99565.00;;;18.00
9985;BMP180;16737;50.932;6.780;2023-05-10T03:00:19;99574.00;;;18.00
9985;BMP180;16737;50.932;6.780;2023-05-10T03:02:46;99574.00;;;18.00
9985;BMP180;16737;50.932;6.780;2023-05-10T03:05:14;99570.00;;;18.00
9985;BMP180;16737;50.932;6.780;2023-05-10T03:07:41;99573.00;;;18.00
9985;BMP180;16737;50.932;6.780;2023-05-10T03:10:09;99573.00;;;18.10
9985;BMP180;16737;50.932;6.780;2023-05-10T03:15:37;99577.00;;;18.10
9985;BMP180;16737;50.932;6.780;2023-05-10T03:18:10;99576.00;;;18.10
9985;BMP180;16737;50.932;6.780;2023-05-10T03:20:42;99561.00;;;18.10
9985;BMP180;16737;50.932;6.780;2023-05-10T03:23:13;99568.00;;;18.10
9985;BMP180;16737;50.932;6.780;2023-05-10T03:25:47;99578.00;;;18.10
9985;BMP180;16737;50.932;6.780;2023-05-10T03:28:18;99569.00;;;18.10
9985;BMP180;16737;50.932;6.780;2023-05-10T03:30:46;99574.00;;;18.10
9985;BMP180;16737;50.932;6.780;2023-05-10T03:33:13;99574.00;;;18.10
9985;BMP180;16737;50.932;6.780;2023-05-10T03:35:41;99580.00;;;18.10
9985;BMP180;16737;50.932;6.780;2023-05-10T03:38:11;99578.00;;;18.00
9985;BMP180;16737;50.932;6.780;2023-05-10T03:40:39;99577.00;;;18.00
9985;BMP180;16737;50.932;6.780;2023-05-10T03:43:06;99593.00;;;18.00
9985;BMP180;16737;50.932;6.780;2023-05-10T03:45:35;99576.00;;;18.00
9985;BMP180;16737;50.932;6.780;2023-05-10T03:48:02;99587.00;;;18.00
9985;BMP180;16737;50.932;6.780;2023-05-10T03:50:29;99580.00;;;18.00
9985;BMP180;16737;50.932;6.780;2023-05-10T03:52:57;99581.00;;;18.00
9985;BMP180;16737;50.932;6.780;2023-05-10T03:55:24;99597.00;;;18.00
9985;BMP180;16737;50.932;6.780;2023-05-10T03:57:51;99582.00;;;18.00
9985;BMP180;16737;50.932;6.780;2023-05-10T04:00:20;99587.00;;;18.00
9985;BMP180;16737;50.932;6.780;2023-05-10T04:02:48;99593.00;;;18.00
9985;BMP180;16737;50.932;6.780;2023-05-10T04:05:16;99597.00;;;17.90
9985;BMP180;16737;50.932;6.780;2023-05-10T04:07:43;99579.00;;;17.90
9985;BMP180;16737;50.932;6.780;2023-05-10T04:10:11;99591.00;;;17.90
9985;BMP180;16737;50.932;6.780;2023-05-10T04:12:38;99590.00;;;17.80
9985;BMP180;16737;50.932;6.780;2023-05-10T04:15:06;99588.00;;;17.80
9985;BMP180;16737;50.932;6.780;2023-05-10T04:17:34;99588.00;;;17.80
9985;BMP180;16737;50.932;6.780;2023-05-10T04:20:03;99588.00;;;17.80
9985;BMP180;16737;50.932;6.780;2023-05-10T04:22:31;99588.00;;;17.70
9985;BMP180;16737;50.932;6.780;2023-05-10T04:24:58;99575.00;;;17.70
9985;BMP180;16737;50.932;6.780;2023-05-10T04:27:26;99586.00;;;17.70
9985;BMP180;16737;50.932;6.780;2023-05-10T04:29:53;99589.00;;;17.70
9985;BMP180;16737;50.932;6.780;2023-05-10T04:32:20;99584.00;;;17.70
9985;BMP180;16737;50.932;6.780;2023-05-10T04:34:48;99591.00;;;17.70
9985;BMP180;16737;50.932;6.780;2023-05-10T04:37:16;99588.00;;;17.60
9985;BMP180;16737;50.932;6.780;2023-05-10T04:39:44;99588.00;;;17.60
9985;BMP180;16737;50.932;6.780;2023-05-10T04:42:11;99599.00;;;17.60
9985;BMP180;16737;50.932;6.780;2023-05-10T04:44:40;99600.00;;;17.60
9985;BMP180;16737;50.932;6.780;2023-05-10T04:47:08;99588.00;;;17.60
9985;BMP180;16737;50.932;6.780;2023-05-10T04:49:35;99591.00;;;17.60
9985;BMP180;16737;50.932;6.780;2023-05-10T04:52:03;99598.00;;;17.60
9985;BMP180;16737;50.932;6.780;2023-05-10T04:54:31;99603.00;;;17.60
9985;BMP180;16737;50.932;6.780;2023-05-10T04:56:59;99603.00;;;17.60
9985;BMP180;16737;50.932;6.780;2023-05-10T04:59:26;99610.00;;;17.60
9985;BMP180;16737;50.932;6.780;2023-05-10T05:01:53;99610.00;;;17.60
9985;BMP180;16737;50.932;6.780;2023-05-10T05:04:21;99615.00;;;17.60
9985;BMP180;16737;50.932;6.780;2023-05-10T05:06:49;99615.00;;;17.50
9985;BMP180;16737;50.932;6.780;2023-05-10T05:09:16;99613.00;;;17.50
9985;BMP180;16737;50.932;6.780;2023-05-10T05:11:45;99615.00;;;17.50
9985;BMP180;16737;50.932;6.780;2023-05-10T05:14:12;99618.00;;;17.50
9985;BMP180;16737;50.932;6.780;2023-05-10T05:16:40;99626.00;;;17.50
9985;BMP180;16737;50.932;6.780;2023-05-10T05:19:07;99625.00;;;17.50
9985;BMP180;16737;50.932;6.780;2023-05-10T05:21:34;99627.00;;;17.50
9985;BMP180;16737;50.932;6.780;2023-05-10T05:24:01;99635.00;;;17.50
9985;BMP180;16737;50.932;6.780;2023-05-10T05:26:29;99631.00;;;17.50
9985;BMP180;16737;50.932;6.780;2023-05-10T05:28:57;99632.00;;;17.50
9985;BMP180;16737;50.932;6.780;2023-05-10T05:31:24;99628.00;;;17.50
9985;BMP180;16737;50.932;6.780;2023-05-10T05:33:52;99644.00;;;17.50
9985;BMP180;16737;50.932;6.780;2023-05-10T05:36:19;99628.00;;;17.50
9985;BMP180;16737;50.932;6.780;2023-05-10T05:38:48;99636.00;;;17.50
9985;BMP180;16737;50.932;6.780;2023-05-10T05:41:16;99641.00;;;17.50
9985;BMP180;16737;50.932;6.780;2023-05-10T05:43:43;99631.00;;;17.60
9985;BMP180;16737;50.932;6.780;2023-05-10T05:46:11;99643.00;;;17.50
9985;BMP180;16737;50.932;6.780;2023-05-10T05:48:39;99644.00;;;17.60
9985;BMP180;16737;50.932;6.780;2023-05-10T05:51:06;99646.00;;;17.60
9985;BMP180;16737;50.932;6.780;2023-05-10T05:53:33;99645.00;;;17.60
9985;BMP180;16737;50.932;6.780;2023-05-10T05:56:01;99647.00;;;17.60
9985;BMP180;16737;50.932;6.780;2023-05-10T05:58:29;99636.00;;;17.50
9985;BMP180;16737;50.932;6.780;2023-05-10T06:00:56;99653.00;;;17.60
9985;BMP180;16737;50.932;6.780;2023-05-10T06:03:25;99662.00;;;17.60
9985;BMP180;16737;50.932;6.780;2023-05-10T06:05:52;99655.00;;;17.60
9985;BMP180;16737;50.932;6.780;2023-05-10T06:08:20;99663.00;;;17.60
9985;BMP180;16737;50.932;6.780;2023-05-10T06:10:47;99667.00;;;17.60
9985;BMP180;16737;50.932;6.780;2023-05-10T06:13:14;99661.00;;;17.70
9985;BMP180;16737;50.932;6.780;2023-05-10T06:15:42;99676.00;;;17.70
9985;BMP180;16737;50.932;6.780;2023-05-10T06:18:09;99675.00;;;17.70
9985;BMP180;16737;50.932;6.780;2023-05-10T06:20:38;99687.00;;;17.70
9985;BMP180;16737;50.932;6.780;2023-05-10T06:23:05;99680.00;;;17.70
9985;BMP180;16737;50.932;6.780;2023-05-10T06:25:32;99679.00;;;17.70
9985;BMP180;16737;50.932;6.780;2023-05-10T06:28:00;99687.00;;;17.70
9985;BMP180;16737;50.932;6.780;2023-05-10T06:30:28;99695.00;;;17.80
9985;BMP180;16737;50.932;6.780;2023-05-10T06:32:55;99690.00;;;17.80
9985;BMP180;16737;50.932;6.780;2023-05-10T06:35:22;99695.00;;;17.80
9985;BMP180;16737;50.932;6.780;2023-05-10T06:37:51;99706.00;;;17.80
9985;BMP180;16737;50.932;6.780;2023-05-10T06:40:18;99699.00;;;17.80
9985;BMP180;16737;50.932;6.780;2023-05-10T06:42:47;99703.00;;;17.80
9985;BMP180;16737;50.932;6.780;2023-05-10T06:45:20;99709.00;;;17.80
9985;BMP180;16737;50.932;6.780;2023-05-10T06:47:48;99709.00;;;17.80
9985;BMP180;16737;50.932;6.780;2023-05-10T06:50:15;99712.00;;;17.80
9985;BMP180;16737;50.932;6.780;2023-05-10T06:52:42;99712.00;;;17.80
9985;BMP180;16737;50.932;6.780;2023-05-10T06:55:11;99715.00;;;17.80
9985;BMP180;16737;50.932;6.780;2023-05-10T06:57:38;99708.00;;;17.80
9985;BMP180;16737;50.932;6.780;2023-05-10T07:00:06;99708.00;;;17.80
9985;BMP180;16737;50.932;6.780;2023-05-10T07:02:35;99712.00;;;17.90
9985;BMP180;16737;50.932;6.780;2023-05-10T07:05:03;99709.00;;;17.90
9985;BMP180;16737;50.932;6.780;2023-05-10T07:07:30;99718.00;;;17.90
9985;BMP180;16737;50.932;6.780;2023-05-10T07:09:57;99717.00;;;17.90
9985;BMP180;16737;50.932;6.780;2023-05-10T07:12:26;99713.00;;;17.90
9985;BMP180;16737;50.932;6.780;2023-05-10T07:14:53;99714.00;;;17.90
9985;BMP180;16737;50.932;6.780;2023-05-10T07:17:21;99715.00;;;18.00
9985;BMP180;16737;50.932;6.780;2023-05-10T07:19:48;99709.00;;;18.00
9985;BMP180;16737;50.932;6.780;2023-05-10T07:22:16;99721.00;;;18.00
9985;BMP180;16737;50.932;6.780;2023-05-10T07:24:43;99722.00;;;18.00
9985;BMP180;16737;50.932;6.780;2023-05-10T07:27:11;99721.00;;;18.10
9985;BMP180;16737;50.932;6.780;2023-05-10T07:29:40;99722.00;;;18.10
9985;BMP180;16737;50.932;6.780;2023-05-10T07:32:07;99735.00;;;18.10
9985;BMP180;16737;50.932;6.780;2023-05-10T07:34:34;99730.00;;;18.20
9985;BMP180;16737;50.932;6.780;2023-05-10T07:37:02;99729.00;;;18.20
9985;BMP180;16737;50.932;6.780;2023-05-10T07:39:29;99725.00;;;18.20
9985;BMP180;16737;50.932;6.780;2023-05-10T07:41:56;99729.00;;;18.30
9985;BMP180;16737;50.932;6.780;2023-05-10T07:44:24;99740.00;;;18.30
9985;BMP180;16737;50.932;6.780;2023-05-10T07:46:52;99730.00;;;18.30
9985;BMP180;16737;50.932;6.780;2023-05-10T07:49:20;99737.00;;;18.30
9985;BMP180;16737;50.932;6.780;2023-05-10T07:51:47;99738.00;;;18.40
9985;BMP180;16737;50.932;6.780;2023-05-10T07:54:16;99738.00;;;18.40
9985;BMP180;16737;50.932;6.780;2023-05-10T07:56:44;99739.00;;;18.40
9985;BMP180;16737;50.932;6.780;2023-05-10T07:59:16;99736.00;;;18.40
9985;BMP180;16737;50.932;6.780;2023-05-10T08:01:44;99742.00;;;18.50
9985;BMP180;16737;50.932;6.780;2023-05-10T08:04:13;99746.00;;;18.50
9985;BMP180;16737;50.932;6.780;2023-05-10T08:06:40;99735.00;;;18.50
9985;BMP180;16737;50.932;6.780;2023-05-10T08:09:08;99750.00;;;18.50
9985;BMP180;16737;50.932;6.780;2023-05-10T08:11:35;99748.00;;;18.50
9985;BMP180;16737;50.932;6.780;2023-05-10T08:14:02;99750.00;;;18.50
9985;BMP180;16737;50.932;6.780;2023-05-10T08:16:29;99746.00;;;18.50
9985;BMP180;16737;50.932;6.780;2023-05-10T08:18:58;99749.00;;;18.50
9985;BMP180;16737;50.932;6.780;2023-05-10T08:21:26;99749.00;;;18.50
9985;BMP180;16737;50.932;6.780;2023-05-10T08:23:54;99754.00;;;18.60
9985;BMP180;16737;50.932;6.780;2023-05-10T08:26:21;99757.00;;;18.60
9985;BMP180;16737;50.932;6.780;2023-05-10T08:28:48;99759.00;;;18.50
9985;BMP180;16737;50.932;6.780;2023-05-10T08:31:16;99761.00;;;18.50
9985;BMP180;16737;50.932;6.780;2023-05-10T08:33:44;99759.00;;;18.60
9985;BMP180;16737;50.932;6.780;2023-05-10T08:36:11;99758.00;;;18.60
9985;BMP180;16737;50.932;6.780;2023-05-10T08:38:41;99766.00;;;18.60
9985;BMP180;16737;50.932;6.780;2023-05-10T08:41:08;99769.00;;;18.60
9985;BMP180;16737;50.932;6.780;2023-05-10T08:43:37;99771.00;;;18.60
9985;BMP180;16737;50.932;6.780;2023-05-10T08:46:05;99776.00;;;18.70
9985;BMP180;16737;50.932;6.780;2023-05-10T08:48:34;99778.00;;;18.70
9985;BMP180;16737;50.932;6.780;2023-05-10T08:51:03;99786.00;;;18.80
9985;BMP180;16737;50.932;6.780;2023-05-10T08:53:32;99799.00;;;18.80
9985;BMP180;16737;50.932;6.780;2023-05-10T08:56:01;99790.00;;;18.90
9985;BMP180;16737;50.932;6.780;2023-05-10T08:58:29;99789.00;;;18.90
9985;BMP180;16737;50.932;6.780;2023-05-10T09:00:57;99795.00;;;19.00
9985;BMP180;16737;50.932;6.780;2023-05-10T09:03:25;99797.00;;;19.00
9985;BMP180;16737;50.932;6.780;2023-05-10T09:05:52;99796.00;;;19.10
9985;BMP180;16737;50.932;6.780;2023-05-10T09:08:23;99790.00;;;19.10
9985;BMP180;16737;50.932;6.780;2023-05-10T09:10:52;99806.00;;;19.10
9985;BMP180;16737;50.932;6.780;2023-05-10T09:13:22;99806.00;;;19.20
9985;BMP180;16737;50.932;6.780;2023-05-10T09:15:49;99805.00;;;19.20
9985;BMP180;16737;50.932;6.780;2023-05-10T09:18:18;99806.00;;;19.20
9985;BMP180;16737;50.932;6.780;2023-05-10T09:20:45;99803.00;;;19.10
9985;BMP180;16737;50.932;6.780;2023-05-10T09:23:13;99812.00;;;19.00
9985;BMP180;16737;50.932;6.780;2023-05-10T09:25:41;99813.00;;;19.00
9985;BMP180;16737;50.932;6.780;2023-05-10T09:28:09;99823.00;;;19.00
9985;BMP180;16737;50.932;6.780;2023-05-10T09:30:38;99823.00;;;19.00
9985;BMP180;16737;50.932;6.780;2023-05-10T09:33:05;99834.00;;;18.90
9985;BMP180;16737;50.932;6.780;2023-05-10T09:35:33;99831.00;;;18.90
9985;BMP180;16737;50.932;6.780;2023-05-10T09:38:02;99825.00;;;18.90
9985;BMP180;16737;50.932;6.780;2023-05-10T09:40:30;99839.00;;;18.90
9985;BMP180;16737;50.932;6.780;2023-05-10T09:42:58;99833.00;;;19.00
9985;BMP180;16737;50.932;6.780;2023-05-10T09:45:29;99840.00;;;19.00
9985;BMP180;16737;50.932;6.780;2023-05-10T09:47:59;99839.00;;;19.00
9985;BMP180;16737;50.932;6.780;2023-05-10T09:50:27;99832.00;;;19.00
9985;BMP180;16737;50.932;6.780;2023-05-10T09:52:56;99832.00;;;19.00
9985;BMP180;16737;50.932;6.780;2023-05-10T09:55:26;99837.00;;;19.10
9985;BMP180;16737;50.932;6.780;2023-05-10T09:58:04;99830.00;;;19.10
9985;BMP180;16737;50.932;6.780;2023-05-10T10:00:37;99832.00;;;19.10
9985;BMP180;16737;50.932;6.780;2023-05-10T10:03:06;99836.00;;;19.20
9985;BMP180;16737;50.932;6.780;2023-05-10T10:05:41;99832.00;;;19.30
9985;BMP180;16737;50.932;6.780;2023-05-10T10:08:09;99846.00;;;19.40
9985;BMP180;16737;50.932;6.780;2023-05-10T10:10:37;99852.00;;;19.50
9985;BMP180;16737;50.932;6.780;2023-05-10T10:13:04;99842.00;;;19.60
9985;BMP180;16737;50.932;6.780;2023-05-10T10:15:33;99844.00;;;19.60
9985;BMP180;16737;50.932;6.780;2023-05-10T10:18:01;99851.00;;;19.70
9985;BMP180;16737;50.932;6.780;2023-05-10T10:20:31;99847.00;;;19.70
9985;BMP180;16737;50.932;6.780;2023-05-10T10:22:58;99847.00;;;19.70
9985;BMP180;16737;50.932;6.780;2023-05-10T10:25:26;99857.00;;;19.70
9985;BMP180;16737;50.932;6.780;2023-05-10T10:28:07;99855.00;;;19.70
9985;BMP180;16737;50.932;6.780;2023-05-10T10:30:39;99855.00;;;19.70
9985;BMP180;16737;50.932;6.780;2023-05-10T10:33:28;99853.00;;;19.70
9985;BMP180;16737;50.932;6.780;2023-05-10T10:35:59;99854.00;;;19.70
9985;BMP180;16737;50.932;6.780;2023-05-10T10:38:37;99855.00;;;19.60
9985;BMP180;16737;50.932;6.780;2023-05-10T10:41:10;99855.00;;;19.60
9985;BMP180;16737;50.932;6.780;2023-05-10T10:43:38;99854.00;;;19.60
9985;BMP180;16737;50.932;6.780;2023-05-10T10:46:12;99850.00;;;19.60
9985;BMP180;16737;50.932;6.780;2023-05-10T10:48:41;99854.00;;;19.60
9985;BMP180;16737;50.932;6.780;2023-05-10T10:51:09;99853.00;;;19.60
9985;BMP180;16737;50.932;6.780;2023-05-10T10:53:37;99841.00;;;19.60
9985;BMP180;16737;50.932;6.780;2023-05-10T10:56:06;99849.00;;;19.70
9985;BMP180;16737;50.932;6.780;2023-05-10T10:58:35;99850.00;;;19.70
9985;BMP180;16737;50.932;6.780;2023-05-10T11:01:14;99852.00;;;19.80
9985;BMP180;16737;50.932;6.780;2023-05-10T11:03:54;99860.00;;;19.90
9985;BMP180;16737;50.932;6.780;2023-05-10T11:06:30;99870.00;;;20.00
9985;BMP180;16737;50.932;6.780;2023-05-10T11:08:58;99872.00;;;20.00
9985;BMP180;16737;50.932;6.780;2023-05-10T11:11:26;99872.00;;;20.10
9985;BMP180;16737;50.932;6.780;2023-05-10T11:13:53;99865.00;;;20.10
9985;BMP180;16737;50.932;6.780;2023-05-10T11:16:29;99872.00;;;20.10
9985;BMP180;16737;50.932;6.780;2023-05-10T11:19:11;99879.00;;;20.10
9985;BMP180;16737;50.932;6.780;2023-05-10T11:21:47;99871.00;;;20.00
9985;BMP180;16737;50.932;6.780;2023-05-10T11:24:16;99869.00;;;20.00
9985;BMP180;16737;50.932;6.780;2023-05-10T11:26:44;99876.00;;;20.00
9985;BMP180;16737;50.932;6.780;2023-05-10T11:29:13;99885.00;;;20.00
9985;BMP180;16737;50.932;6.780;2023-05-10T11:31:44;99889.00;;;20.00
9985;BMP180;16737;50.932;6.780;2023-05-10T11:34:22;99881.00;;;20.00
9985;BMP180;16737;50.932;6.780;2023-05-10T11:36:53;99876.00;;;20.00
9985;BMP180;16737;50.932;6.780;2023-05-10T11:39:21;99882.00;;;20.00
9985;BMP180;16737;50.932;6.780;2023-05-10T11:41:49;99880.00;;;20.00
9985;BMP180;16737;50.932;6.780;2023-05-10T11:44:17;99884.00;;;20.10
9985;BMP180;16737;50.932;6.780;2023-05-10T11:46:44;99879.00;;;20.10
9985;BMP180;16737;50.932;6.780;2023-05-10T11:49:11;99879.00;;;20.10
9985;BMP180;16737;50.932;6.780;2023-05-10T11:51:39;99878.00;;;20.20
9985;BMP180;16737;50.932;6.780;2023-05-10T11:54:10;99880.00;;;20.20
9985;BMP180;16737;50.932;6.780;2023-05-10T11:56:38;99895.00;;;20.30
9985;BMP180;16737;50.932;6.780;2023-05-10T11:59:06;99890.00;;;20.30
9985;BMP180;16737;50.932;6.780;2023-05-10T12:01:34;99890.00;;;20.40
9985;BMP180;16737;50.932;6.780;2023-05-10T12:04:02;99886.00;;;20.40
9985;BMP180;16737;50.932;6.780;2023-05-10T12:06:30;99882.00;;;20.40
9985;BMP180;16737;50.932;6.780;2023-05-10T12:08:58;99886.00;;;20.50
9985;BMP180;16737;50.932;6.780;2023-05-10T12:11:28;99900.00;;;20.50
9985;BMP180;16737;50.932;6.780;2023-05-10T12:13:56;99895.00;;;20.60
9985;BMP180;16737;50.932;6.780;2023-05-10T12:16:24;99895.00;;;20.60
9985;BMP180;16737;50.932;6.780;2023-05-10T12:18:53;99895.00;;;20.70
9985;BMP180;16737;50.932;6.780;2023-05-10T12:21:21;99893.00;;;20.80
9985;BMP180;16737;50.932;6.780;2023-05-10T12:23:49;99898.00;;;20.80
9985;BMP180;16737;50.932;6.780;2023-05-10T12:26:17;99897.00;;;20.80
9985;BMP180;16737;50.932;6.780;2023-05-10T12:28:45;99896.00;;;20.90
9985;BMP180;16737;50.932;6.780;2023-05-10T12:31:13;99896.00;;;20.90
9985;BMP180;16737;50.932;6.780;2023-05-10T12:33:41;99898.00;;;21.00
9985;BMP180;16737;50.932;6.780;2023-05-10T12:36:10;99893.00;;;21.00
9985;BMP180;16737;50.932;6.780;2023-05-10T12:38:39;99896.00;;;21.00
9985;BMP180;16737;50.932;6.780;2023-05-10T12:41:11;99896.00;;;21.10
9985;BMP180;16737;50.932;6.780;2023-05-10T12:43:39;99910.00;;;21.20
9985;BMP180;16737;50.932;6.780;2023-05-10T12:46:10;99904.00;;;21.20
9985;BMP180;16737;50.932;6.780;2023-05-10T12:48:38;99904.00;;;21.20
9985;BMP180;16737;50.932;6.780;2023-05-10T12:51:06;99908.00;;;21.30
9985;BMP180;16737;50.932;6.780;2023-05-10T12:53:35;99905.00;;;21.30
9985;BMP180;16737;50.932;6.780;2023-05-10T12:56:03;99908.00;;;21.30
9985;BMP180;16737;50.932;6.780;2023-05-10T12:58:30;99911.00;;;21.40
9985;BMP180;16737;50.932;6.780;2023-05-10T13:00:58;99908.00;;;21.40
9985;BMP180;16737;50.932;6.780;2023-05-10T13:03:27;99917.00;;;21.30
9985;BMP180;16737;50.932;6.780;2023-05-10T13:05:54;99924.00;;;21.40
9985;BMP180;16737;50.932;6.780;2023-05-10T13:08:21;99917.00;;;21.40
9985;BMP180;16737;50.932;6.780;2023-05-10T13:10:49;99917.00;;;21.40
9985;BMP180;16737;50.932;6.780;2023-05-10T13:13:16;99918.00;;;21.40
9985;BMP180;16737;50.932;6.780;2023-05-10T13:15:44;99915.00;;;21.40
9985;BMP180;16737;50.932;6.780;2023-05-10T13:18:11;99917.00;;;21.40
9985;BMP180;16737;50.932;6.780;2023-05-10T13:20:40;99910.00;;;21.40
9985;BMP180;16737;50.932;6.780;2023-05-10T13:23:09;99908.00;;;21.50
9985;BMP180;16737;50.932;6.780;2023-05-10T13:25:36;99912.00;;;21.60
9985;BMP180;16737;50.932;6.780;2023-05-10T13:28:03;99914.00;;;21.70
9985;BMP180;16737;50.932;6.780;2023-05-10T13:30:30;99906.00;;;21.70
9985;BMP180;16737;50.932;6.780;2023-05-10T13:32:58;99907.00;;;21.70
9985;BMP180;16737;50.932;6.780;2023-05-10T13:35:25;99912.00;;;21.80
9985;BMP180;16737;50.932;6.780;2023-05-10T13:37:54;99918.00;;;21.80
9985;BMP180;16737;50.932;6.780;2023-05-10T13:40:23;99905.00;;;21.90
9985;BMP180;16737;50.932;6.780;2023-05-10T13:42:50;99907.00;;;21.90
9985;BMP180;16737;50.932;6.780;2023-05-10T13:45:20;99903.00;;;22.00
9985;BMP180;16737;50.932;6.780;2023-05-10T13:47:50;99904.00;;;22.00
9985;BMP180;16737;50.932;6.780;2023-05-10T13:50:18;99904.00;;;22.10
9985;BMP180;16737;50.932;6.780;2023-05-10T13:52:45;99894.00;;;22.10
9985;BMP180;16737;50.932;6.780;2023-05-10T13:55:14;99911.00;;;22.10
9985;BMP180;16737;50.932;6.780;2023-05-10T13:57:41;99905.00;;;22.20
9985;BMP180;16737;50.932;6.780;2023-05-10T14:00:10;99901.00;;;22.20
9985;BMP180;16737;50.932;6.780;2023-05-10T14:02:37;99903.00;;;22.30
9985;BMP180;16737;50.932;6.780;2023-05-10T14:05:05;99905.00;;;22.40
9985;BMP180;16737;50.932;6.780;2023-05-10T14:07:32;99898.00;;;22.40
9985;BMP180;16737;50.932;6.780;2023-05-10T14:10:00;99897.00;;;22.50
9985;BMP180;16737;50.932;6.780;2023-05-10T14:12:30;99888.00;;;22.40
9985;BMP180;16737;50.932;6.780;2023-05-10T14:14:57;99895.00;;;22.50
9985;BMP180;16737;50.932;6.780;2023-05-10T14:17:24;99899.00;;;22.50
9985;BMP180;16737;50.932;6.780;2023-05-10T14:19:52;99893.00;;;22.40
9985;BMP180;16737;50.932;6.780;2023-05-10T14:22:19;99895.00;;;22.40
9985;BMP180;16737;50.932;6.780;2023-05-10T14:24:46;99897.00;;;22.40
9985;BMP180;16737;50.932;6.780;2023-05-10T14:27:13;99902.00;;;22.40
9985;BMP180;16737;50.932;6.780;2023-05-10T14:29:43;99906.00;;;22.50
9985;BMP180;16737;50.932;6.780;2023-05-10T14:32:10;99912.00;;;22.50
9985;BMP180;16737;50.932;6.780;2023-05-10T14:34:37;99910.00;;;22.60
9985;BMP180;16737;50.932;6.780;2023-05-10T14:37:05;99907.00;;;22.70